createdAt,value
2023-01-12T00:02:21.193Z,25.08
2023-01-12T00:04:49.168Z,25.90
2023-01-12T00:07:18.478Z,25.92
2023-01-12T00:09:46.506Z,23.70
2023-01-12T00:12:14.902Z,24.63
2023-01-12T00:14:42.855Z,24.23
2023-01-12T00:17:12.323Z,23.45
2023-01-12T00:19:40.434Z,25.85
2023-01-12T00:22:11.927Z,24.80
2023-01-12T00:24:45.526Z,25.27
2023-01-12T00:27:16.637Z,24.25
2023-01-12T00:29:44.727Z,25.15
2023-01-12T00:32:18.059Z,24.63
2023-01-12T00:37:14.616Z,23.25
2023-01-12T00:39:53.136Z,25.13
2023-01-12T00:42:43.493Z,25.33
2023-01-12T00:45:23.128Z,26.00
2023-01-12T00:47:52.311Z,20.63
2023-01-12T00:50:20.013Z,25.67
2023-01-12T00:52:47.725Z,25.08
2023-01-12T00:55:15.861Z,24.75
2023-01-12T00:57:43.945Z,25.95
2023-01-12T01:00:12.055Z,24.42
2023-01-12T01:02:40.354Z,25.58
2023-01-12T01:05:08.990Z,24.58
2023-01-12T01:07:38.348Z,24.52
2023-01-12T01:10:06.307Z,25.48
2023-01-12T01:12:34.261Z,24.70
2023-01-12T01:15:01.989Z,25.52
2023-01-12T01:17:30.143Z,26.35
2023-01-12T01:19:58.003Z,24.50
2023-01-12T01:22:26.230Z,26.85
2023-01-12T01:24:53.937Z,25.80
2023-01-12T01:27:22.114Z,24.52
2023-01-12T01:29:49.903Z,24.13
2023-01-12T01:32:18.109Z,24.33
2023-01-12T01:34:47.431Z,23.85
2023-01-12T01:37:15.228Z,23.95
2023-01-12T01:39:42.951Z,25.30
2023-01-12T01:42:28.343Z,24.08
2023-01-12T01:44:58.564Z,23.77
2023-01-12T01:47:32.178Z,24.77
2023-01-12T01:50:01.465Z,24.35
2023-01-12T01:52:37.167Z,24.83
2023-01-12T01:55:10.622Z,24.85
2023-01-12T01:57:48.799Z,26.27
2023-01-12T02:00:17.089Z,22.75
2023-01-12T02:02:46.994Z,25.50
2023-01-12T02:05:20.376Z,26.33
2023-01-12T02:07:49.873Z,26.10
2023-01-12T02:10:18.136Z,26.58
2023-01-12T02:13:04.920Z,23.95
2023-01-12T02:16:18.137Z,24.90
2023-01-12T02:18:56.464Z,24.40
2023-01-12T02:21:46.925Z,25.10
2023-01-12T02:24:59.731Z,25.92
2023-01-12T02:27:41.237Z,24.23
2023-01-12T02:30:09.196Z,25.25
2023-01-12T02:33:04.291Z,26.02
2023-01-12T02:35:53.040Z,24.35
2023-01-12T02:38:46.108Z,25.63
2023-01-12T02:43:47.933Z,23.45
2023-01-12T02:46:29.509Z,25.80
2023-01-12T02:49:05.522Z,26.42
2023-01-12T02:51:41.552Z,25.00
2023-01-12T02:54:15.169Z,25.67
2023-01-12T02:56:49.715Z,25.77
2023-01-12T02:59:29.377Z,25.05
2023-01-12T03:02:01.973Z,25.02
2023-01-12T03:04:32.420Z,18.15
2023-01-12T03:07:00.395Z,24.98
2023-01-12T03:09:41.696Z,24.75
2023-01-12T03:12:14.625Z,24.80
2023-01-12T03:14:46.660Z,23.92
2023-01-12T03:17:28.452Z,23.98
2023-01-12T03:19:57.927Z,22.55
2023-01-12T03:22:26.482Z,23.83
2023-01-12T03:24:58.229Z,22.63
2023-01-12T03:27:30.877Z,22.77
2023-01-12T03:30:01.594Z,23.00
2023-01-12T03:32:29.969Z,23.77
2023-01-12T03:34:58.693Z,23.15
2023-01-12T03:37:28.654Z,24.05
2023-01-12T03:40:03.905Z,23.90
2023-01-12T03:42:50.088Z,22.80
2023-01-12T03:45:42.630Z,23.30
2023-01-12T03:48:17.706Z,22.80
2023-01-12T03:51:01.645Z,23.60
2023-01-12T03:53:31.416Z,23.20
2023-01-12T03:56:05.868Z,23.60
2023-01-12T03:58:35.429Z,24.60
2023-01-12T04:01:04.228Z,23.27
2023-01-12T04:03:32.925Z,24.13
2023-01-12T04:06:00.981Z,24.70
2023-01-12T04:08:29.923Z,23.63
2023-01-12T04:10:57.721Z,23.80
2023-01-12T04:13:26.193Z,24.00
2023-01-12T04:15:53.964Z,22.75
2023-01-12T04:18:21.930Z,24.48
2023-01-12T04:20:50.136Z,24.02
2023-01-12T04:23:18.376Z,23.13
2023-01-12T04:25:46.185Z,24.15
2023-01-12T04:28:17.150Z,23.98
2023-01-12T04:30:44.495Z,23.75
2023-01-12T04:33:12.797Z,24.08
2023-01-12T04:35:40.791Z,25.13
2023-01-12T04:38:09.941Z,24.38
2023-01-12T04:40:37.889Z,25.27
2023-01-12T04:43:08.589Z,24.48
2023-01-12T04:45:39.571Z,23.65
2023-01-12T04:48:11.263Z,25.13
2023-01-12T04:50:39.919Z,23.48
2023-01-12T04:53:10.788Z,23.42
2023-01-12T04:55:41.133Z,23.92
2023-01-12T04:58:10.459Z,24.80
2023-01-12T05:00:38.296Z,24.08
2023-01-12T05:03:06.662Z,23.13
2023-01-12T05:05:34.394Z,25.83
2023-01-12T05:08:22.905Z,23.88
2023-01-12T05:10:55.545Z,24.88
2023-01-12T05:15:51.785Z,23.52
2023-01-12T05:18:20.308Z,23.60
2023-01-12T05:20:48.059Z,23.92
2023-01-12T05:23:16.673Z,24.25
2023-01-12T05:25:44.363Z,24.00
2023-01-12T05:28:12.587Z,23.83
2023-01-12T05:30:40.336Z,22.73
2023-01-12T05:33:16.094Z,23.85
2023-01-12T05:35:43.832Z,24.02
2023-01-12T05:38:12.397Z,23.33
2023-01-12T05:40:40.798Z,24.38
2023-01-12T05:43:31.338Z,24.00
2023-01-12T05:46:04.016Z,22.70
2023-01-12T05:48:32.956Z,24.02
2023-01-12T05:51:04.127Z,24.90
2023-01-12T05:53:32.794Z,24.38
2023-01-12T05:56:10.203Z,24.27
2023-01-12T05:58:38.740Z,25.23
2023-01-12T06:01:08.482Z,22.13
2023-01-12T06:03:38.109Z,25.10
2023-01-12T06:06:06.887Z,24.35
2023-01-12T06:08:35.305Z,24.40
2023-01-12T06:11:04.002Z,23.60
2023-01-12T06:13:50.755Z,25.77
2023-01-12T06:16:18.501Z,24.83
2023-01-12T06:18:46.438Z,25.67
2023-01-12T06:21:14.236Z,25.05
2023-01-12T06:23:42.592Z,25.70
2023-01-12T06:26:10.801Z,27.70
2023-01-12T06:28:40.923Z,27.08
2023-01-12T06:31:10.684Z,27.13
2023-01-12T06:33:39.291Z,27.27
2023-01-12T06:36:07.940Z,27.63
2023-01-12T06:38:39.663Z,27.80
2023-01-12T06:41:29.885Z,26.88
2023-01-12T06:43:58.458Z,26.55
2023-01-12T06:46:28.125Z,25.45
2023-01-12T06:48:57.850Z,28.02
2023-01-12T06:51:26.343Z,25.75
2023-01-12T06:53:55.062Z,26.00
2023-01-12T06:56:23.644Z,27.17
2023-01-12T06:58:52.133Z,27.38
2023-01-12T07:01:20.196Z,27.27
2023-01-12T07:03:48.534Z,28.38
2023-01-12T07:06:17.193Z,29.38
2023-01-12T07:08:45.720Z,25.40
2023-01-12T07:11:15.364Z,26.25
2023-01-12T07:13:43.743Z,28.50
2023-01-12T07:16:11.773Z,27.63
2023-01-12T07:18:40.259Z,26.80
2023-01-12T07:21:09.345Z,25.33
2023-01-12T07:23:42.593Z,25.67
2023-01-12T07:26:11.270Z,25.92
2023-01-12T07:28:40.028Z,26.73
2023-01-12T07:31:08.175Z,26.63
2023-01-12T07:33:38.325Z,27.80
2023-01-12T07:36:07.047Z,26.67
2023-01-12T07:38:35.411Z,26.13
2023-01-12T07:41:04.126Z,25.67
2023-01-12T07:43:33.913Z,26.15
2023-01-12T07:46:02.364Z,26.67
2023-01-12T07:48:30.967Z,27.52
2023-01-12T07:50:59.594Z,24.38
2023-01-12T07:53:28.305Z,26.00
2023-01-12T07:55:58.979Z,27.98
2023-01-12T07:58:28.039Z,24.55
2023-01-12T08:00:59.510Z,25.15
2023-01-12T08:03:28.289Z,25.60
2023-01-12T08:05:57.765Z,23.02
2023-01-12T08:08:26.375Z,24.98
2023-01-12T08:10:54.276Z,24.20
2023-01-12T08:13:25.834Z,23.83
2023-01-12T08:15:55.290Z,26.48
2023-01-12T08:18:27.475Z,25.17
2023-01-12T08:20:57.515Z,24.92
2023-01-12T08:23:33.232Z,24.00
2023-01-12T08:26:04.838Z,22.92
2023-01-12T08:28:38.941Z,23.33
2023-01-12T08:31:10.178Z,23.83
2023-01-12T08:33:39.062Z,22.65
2023-01-12T08:36:09.830Z,23.00
2023-01-12T08:38:38.503Z,22.95
2023-01-12T08:41:24.561Z,23.05
2023-01-12T08:44:11.475Z,24.73
2023-01-12T08:46:49.883Z,22.98
2023-01-12T08:49:21.394Z,24.25
2023-01-12T08:51:50.099Z,25.63
2023-01-12T08:54:19.904Z,23.65
2023-01-12T08:56:48.251Z,22.67
2023-01-12T08:59:17.031Z,22.92
2023-01-12T09:01:45.680Z,21.85
2023-01-12T09:04:14.140Z,20.95
2023-01-12T09:06:43.878Z,21.17
2023-01-12T09:09:15.746Z,21.92
2023-01-12T09:11:44.614Z,19.65
2023-01-12T09:14:14.563Z,25.08
2023-01-12T09:16:42.991Z,21.27
2023-01-12T09:19:11.651Z,19.05
2023-01-12T09:21:40.774Z,20.00
2023-01-12T09:24:09.283Z,18.60
2023-01-12T09:26:40.112Z,18.48
2023-01-12T09:29:09.399Z,17.27
2023-01-12T09:31:38.082Z,17.88
2023-01-12T09:34:06.789Z,16.90
2023-01-12T09:36:38.709Z,15.57
2023-01-12T09:39:15.388Z,15.60
2023-01-12T09:42:07.391Z,14.27
2023-01-12T09:45:05.893Z,15.20
2023-01-12T09:47:53.999Z,15.18
2023-01-12T09:50:26.434Z,15.32
2023-01-12T09:52:56.196Z,15.25
2023-01-12T09:55:26.727Z,15.43
2023-01-12T09:58:16.117Z,15.50
2023-01-12T10:00:44.655Z,14.40
2023-01-12T10:03:32.298Z,14.38
2023-01-12T10:06:03.780Z,15.05
2023-01-12T10:08:34.813Z,14.07
2023-01-12T10:11:30.681Z,12.65
2023-01-12T10:14:20.121Z,13.38
2023-01-12T10:16:54.311Z,10.65
2023-01-12T10:19:59.584Z,12.63
2023-01-12T10:22:41.775Z,11.32
2023-01-12T10:25:22.502Z,10.23
2023-01-12T10:27:53.943Z,10.48
2023-01-12T10:30:29.084Z,9.50
2023-01-12T10:32:58.086Z,7.88
2023-01-12T10:35:26.205Z,7.85
2023-01-12T10:37:56.591Z,8.82
2023-01-12T10:40:32.981Z,7.97
2023-01-12T10:43:32.221Z,7.35
2023-01-12T10:46:27.645Z,7.13
2023-01-12T10:49:19.485Z,7.65
2023-01-12T10:52:22.682Z,7.07
2023-01-12T10:54:50.927Z,7.10
2023-01-12T10:57:23.857Z,6.15
2023-01-12T10:59:55.517Z,6.07
2023-01-12T11:02:26.147Z,5.53
2023-01-12T11:04:54.914Z,5.20
2023-01-12T11:07:29.377Z,5.18
2023-01-12T11:10:19.293Z,5.65
2023-01-12T11:12:59.277Z,4.85
2023-01-12T11:15:28.957Z,5.47
2023-01-12T11:18:04.494Z,5.65
2023-01-12T11:21:09.455Z,4.20
2023-01-12T11:24:16.616Z,4.65
2023-01-12T11:26:51.081Z,4.10
2023-01-12T11:29:50.221Z,4.25
2023-01-12T11:32:38.901Z,4.75
2023-01-12T11:35:37.734Z,4.70
2023-01-12T11:38:14.408Z,5.20
2023-01-12T11:40:42.955Z,5.07
2023-01-12T11:43:32.386Z,5.20
2023-01-12T11:46:26.958Z,4.70
2023-01-12T11:49:20.258Z,5.70
2023-01-12T11:51:56.891Z,6.13
2023-01-12T11:54:26.801Z,7.85
2023-01-12T11:57:19.658Z,6.63
2023-01-12T11:59:57.613Z,8.40
2023-01-12T12:02:37.816Z,8.10
2023-01-12T12:05:37.270Z,9.07
2023-01-12T12:08:14.791Z,9.73
2023-01-12T12:10:49.063Z,9.15
2023-01-12T12:13:33.747Z,10.82
2023-01-12T12:16:19.927Z,8.75
2023-01-12T12:19:19.285Z,8.68
2023-01-12T12:22:16.526Z,9.88
2023-01-12T12:25:03.125Z,8.98
2023-01-12T12:27:38.288Z,9.40
2023-01-12T12:30:43.375Z,9.70
2023-01-12T12:33:32.660Z,10.05
2023-01-12T12:36:25.694Z,9.07
2023-01-12T12:39:29.471Z,9.00
2023-01-12T12:42:25.087Z,8.70
2023-01-12T12:45:19.391Z,7.55
2023-01-12T12:47:59.861Z,7.05
2023-01-12T12:50:31.721Z,8.30
2023-01-12T12:53:25.801Z,7.53
2023-01-12T12:55:55.218Z,8.15
2023-01-12T12:58:26.785Z,8.90
2023-01-12T13:00:57.347Z,8.35
2023-01-12T13:03:43.935Z,8.38
2023-01-12T13:06:31.204Z,8.15
2023-01-12T13:09:19.430Z,15.30
2023-01-12T13:11:57.927Z,8.30
2023-01-12T13:15:10.448Z,7.85
2023-01-12T13:17:44.065Z,7.85
2023-01-12T13:20:24.541Z,9.07
2023-01-12T13:22:53.588Z,9.02
2023-01-12T13:25:23.281Z,9.90
2023-01-12T13:28:00.718Z,15.00
2023-01-12T13:30:31.605Z,11.60
2023-01-12T13:33:19.973Z,12.68
2023-01-12T13:35:47.701Z,12.77
2023-01-12T13:38:44.312Z,39.20
2023-01-12T13:41:15.277Z,11.77
2023-01-12T13:44:02.563Z,8.50
2023-01-12T13:46:37.808Z,9.00
2023-01-12T13:49:35.988Z,9.82
2023-01-12T13:52:17.459Z,23.80
2023-01-12T13:57:25.323Z,12.85
2023-01-12T14:00:01.275Z,16.80
2023-01-12T14:02:31.551Z,10.70
2023-01-12T14:05:37.691Z,18.92
2023-01-12T14:08:34.382Z,13.55
2023-01-12T14:11:07.518Z,14.75
2023-01-12T14:14:23.186Z,22.02
2023-01-12T14:17:10.519Z,54.70
2023-01-12T14:19:41.061Z,35.10
2023-01-12T14:22:19.837Z,25.08
2023-01-12T14:24:47.768Z,12.95
2023-01-12T14:27:27.663Z,7.50
2023-01-12T14:29:56.294Z,22.70
2023-01-12T14:32:25.050Z,7.82
2023-01-12T14:34:54.620Z,6.63
2023-01-12T14:37:33.268Z,7.60
2023-01-12T14:40:01.244Z,6.88
2023-01-12T14:42:48.044Z,7.68
2023-01-12T14:45:44.443Z,7.22
2023-01-12T14:48:30.662Z,5.80
2023-01-12T14:51:18.901Z,6.82
2023-01-12T14:53:48.862Z,7.25
2023-01-12T14:56:21.232Z,7.40
2023-01-12T14:58:50.124Z,7.55
2023-01-12T15:01:35.158Z,7.38
2023-01-12T15:04:05.671Z,6.47
2023-01-12T15:06:43.219Z,8.93
2023-01-12T15:09:53.152Z,8.63
2023-01-12T15:12:40.039Z,7.93
2023-01-12T15:15:21.639Z,7.03
2023-01-12T15:18:09.713Z,7.95
2023-01-12T15:21:01.263Z,6.78
2023-01-12T15:23:55.218Z,6.25
2023-01-12T15:26:23.093Z,6.43
2023-01-12T15:28:51.651Z,6.32
2023-01-12T15:31:29.104Z,6.80
2023-01-12T15:33:57.566Z,6.45
2023-01-12T15:36:25.649Z,7.47
2023-01-12T15:38:53.963Z,8.35
2023-01-12T15:41:45.555Z,7.57
2023-01-12T15:44:18.370Z,6.25
2023-01-12T15:49:15.317Z,6.65
2023-01-12T15:51:47.746Z,6.00
2023-01-12T15:54:18.376Z,6.28
2023-01-12T15:56:48.130Z,6.15
2023-01-12T15:59:16.757Z,7.15
2023-01-12T16:01:50.010Z,6.30
2023-01-12T16:09:41.580Z,6.22
2023-01-12T16:12:11.064Z,7.85
2023-01-12T16:14:38.737Z,8.70
2023-01-12T16:17:06.923Z,8.05
2023-01-12T16:19:41.588Z,8.38
2023-01-12T16:22:16.327Z,9.38
2023-01-12T16:24:44.654Z,8.45
2023-01-12T16:27:12.862Z,8.90
2023-01-12T16:29:40.519Z,9.68
2023-01-12T16:32:09.208Z,9.68
2023-01-12T16:34:37.293Z,10.10
2023-01-12T16:37:05.927Z,11.35
2023-01-12T16:39:33.783Z,10.82
2023-01-12T16:42:05.262Z,11.15
2023-01-12T16:44:37.647Z,12.18
2023-01-12T16:47:18.232Z,11.55
2023-01-12T16:49:49.331Z,12.30
2023-01-12T16:52:19.959Z,10.73
2023-01-12T16:54:47.954Z,12.65
2023-01-12T16:57:17.816Z,13.27
2023-01-12T16:59:46.189Z,12.65
2023-01-12T17:02:16.046Z,11.30
2023-01-12T17:04:45.296Z,12.60
2023-01-12T17:07:13.235Z,12.48
2023-01-12T17:09:41.429Z,12.98
2023-01-12T17:12:09.887Z,11.77
2023-01-12T17:14:37.857Z,14.75
2023-01-12T17:17:08.683Z,16.33
2023-01-12T17:19:38.692Z,13.40
2023-01-12T17:22:08.178Z,13.43
2023-01-12T17:24:37.401Z,14.57
2023-01-12T17:27:06.158Z,14.63
2023-01-12T17:29:34.114Z,14.90
2023-01-12T17:32:06.752Z,15.77
2023-01-12T17:34:36.987Z,14.07
2023-01-12T17:37:08.607Z,16.17
2023-01-12T17:39:43.492Z,15.93
2023-01-12T17:42:35.818Z,14.65
2023-01-12T17:45:04.456Z,16.15
2023-01-12T17:47:33.182Z,16.02
2023-01-12T17:50:01.306Z,15.75
2023-01-12T17:52:29.708Z,16.67
2023-01-12T17:54:57.956Z,15.90
2023-01-12T17:57:26.650Z,16.25
2023-01-12T17:59:54.379Z,15.95
2023-01-12T18:02:22.969Z,16.42
2023-01-12T18:04:51.080Z,15.70
2023-01-12T18:07:19.221Z,17.02
2023-01-12T18:09:47.241Z,15.70
2023-01-12T18:12:16.640Z,14.73
2023-01-12T18:14:44.416Z,16.77
2023-01-12T18:17:13.002Z,16.27
2023-01-12T18:19:42.421Z,15.93
2023-01-12T18:22:11.140Z,14.98
2023-01-12T18:24:39.253Z,13.55
2023-01-12T18:27:08.172Z,15.43
2023-01-12T18:29:35.825Z,15.80
2023-01-12T18:32:04.303Z,16.23
2023-01-12T18:34:32.082Z,20.20
2023-01-12T18:37:00.755Z,15.65
2023-01-12T18:39:28.438Z,16.80
2023-01-12T18:42:15.070Z,19.48
2023-01-12T18:44:43.015Z,14.15
2023-01-12T18:47:33.266Z,16.63
2023-01-12T18:50:21.187Z,15.35
2023-01-12T18:53:08.164Z,16.48
2023-01-12T18:55:38.795Z,13.52
2023-01-12T18:58:07.155Z,15.40
2023-01-12T19:00:34.936Z,15.23
2023-01-12T19:03:04.577Z,16.15
2023-01-12T19:05:42.791Z,14.10
2023-01-12T19:08:37.132Z,14.30
2023-01-12T19:11:11.942Z,12.68
2023-01-12T19:13:59.240Z,14.23
2023-01-12T19:16:46.324Z,14.70
2023-01-12T19:19:14.801Z,13.65
2023-01-12T19:22:01.126Z,13.15
2023-01-12T19:24:48.008Z,11.77
2023-01-12T19:27:34.368Z,12.60
2023-01-12T19:30:02.812Z,11.95
2023-01-12T19:32:31.275Z,12.27
2023-01-12T19:35:10.368Z,12.43
2023-01-12T19:37:40.456Z,13.07
2023-01-12T19:40:27.995Z,13.77
2023-01-12T19:43:14.157Z,12.32
2023-01-12T19:45:46.572Z,12.77
2023-01-12T19:48:16.583Z,11.60
2023-01-12T19:50:45.296Z,11.07
2023-01-12T19:53:21.457Z,11.45
2023-01-12T19:55:52.898Z,10.27
2023-01-12T19:58:25.550Z,11.95
2023-01-12T20:03:25.611Z,11.48
2023-01-12T20:05:54.893Z,11.93
2023-01-12T20:08:25.138Z,12.00
2023-01-12T20:10:55.480Z,11.75
2023-01-12T20:13:23.674Z,13.90
2023-01-12T20:15:52.922Z,12.38
2023-01-12T20:18:21.063Z,11.55
2023-01-12T20:20:49.411Z,11.90
2023-01-12T20:23:17.999Z,12.75
2023-01-12T20:25:46.517Z,12.75
2023-01-12T20:28:15.831Z,12.77
2023-01-12T20:30:44.743Z,11.80
2023-01-12T20:33:12.631Z,9.63
2023-01-12T20:35:45.709Z,9.93
2023-01-12T20:40:46.316Z,9.43
2023-01-12T20:43:14.707Z,9.57
2023-01-12T20:45:44.621Z,9.93
2023-01-12T20:48:14.234Z,10.40
2023-01-12T20:50:44.835Z,9.98
2023-01-12T20:53:14.677Z,9.45
2023-01-12T20:55:44.395Z,9.02
2023-01-12T20:58:12.405Z,9.68
2023-01-12T21:00:41.152Z,10.18
2023-01-12T21:03:10.534Z,9.60
2023-01-12T21:05:43.670Z,9.07
2023-01-12T21:08:12.347Z,10.27
2023-01-12T21:10:49.641Z,10.25
2023-01-12T21:13:18.184Z,9.68
2023-01-12T21:15:46.495Z,8.68
2023-01-12T21:18:14.069Z,10.02
2023-01-12T21:20:44.122Z,9.75
2023-01-12T21:23:11.724Z,8.73
2023-01-12T21:25:44.393Z,9.48
2023-01-12T21:28:12.964Z,10.18
2023-01-12T21:30:41.657Z,9.93
2023-01-12T21:33:11.063Z,8.73
2023-01-12T21:35:39.121Z,9.68
2023-01-12T21:38:07.867Z,10.30
2023-01-12T21:40:37.370Z,10.25
2023-01-12T21:43:13.682Z,9.77
2023-01-12T21:45:43.726Z,9.38
2023-01-12T21:48:13.053Z,9.52
2023-01-12T21:50:41.236Z,8.90
2023-01-12T21:53:09.494Z,8.82
2023-01-12T21:55:37.331Z,9.18
2023-01-12T21:58:05.237Z,8.90
2023-01-12T22:00:33.329Z,8.48
2023-01-12T22:03:01.268Z,7.75
2023-01-12T22:05:29.632Z,8.75
2023-01-12T22:07:58.350Z,8.32
2023-01-12T22:10:31.096Z,8.85
2023-01-12T22:13:00.388Z,8.57
2023-01-12T22:15:29.999Z,8.38
2023-01-12T22:17:58.151Z,7.78
2023-01-12T22:20:28.247Z,7.68
2023-01-12T22:22:56.213Z,7.90
2023-01-12T22:25:24.009Z,8.30
2023-01-12T22:27:52.173Z,8.32
2023-01-12T22:30:22.230Z,8.77
2023-01-12T22:32:53.754Z,7.88
2023-01-12T22:35:22.568Z,8.13
2023-01-12T22:37:50.358Z,8.50
2023-01-12T22:40:18.684Z,7.85
2023-01-12T22:43:04.859Z,7.00
2023-01-12T22:45:34.739Z,7.35
2023-01-12T22:48:04.662Z,7.53
2023-01-12T22:50:33.291Z,7.75
2023-01-12T22:53:01.098Z,8.00
2023-01-12T22:55:29.347Z,7.20
2023-01-12T22:57:57.126Z,7.90
2023-01-12T23:00:25.514Z,6.95
2023-01-12T23:03:05.655Z,7.63
2023-01-12T23:05:36.596Z,7.82
2023-01-12T23:08:06.131Z,7.93
2023-01-12T23:10:34.666Z,7.18
2023-01-12T23:13:21.825Z,7.53
2023-01-12T23:15:53.707Z,7.35
2023-01-12T23:18:27.500Z,7.25
2023-01-12T23:21:02.081Z,7.45
2023-01-12T23:23:31.100Z,7.80
2023-01-12T23:26:03.729Z,6.70
2023-01-12T23:28:36.873Z,6.15
2023-01-12T23:31:11.667Z,7.28
2023-01-12T23:33:39.836Z,7.50
2023-01-12T23:36:11.078Z,8.57
2023-01-12T23:38:38.808Z,7.65
2023-01-12T23:41:27.102Z,7.68
2023-01-12T23:43:57.163Z,7.60
2023-01-12T23:46:25.848Z,7.05
2023-01-12T23:48:56.766Z,7.45
2023-01-12T23:51:27.110Z,6.65
2023-01-12T23:53:59.681Z,7.28
2023-01-12T23:56:30.144Z,7.10
2023-01-12T23:58:58.243Z,7.00
